createdAt,value
2018-02-06T00:01:47.741Z,26.50
2018-02-06T00:04:15.204Z,21.85
2018-02-06T00:06:42.679Z,20.33
2018-02-06T00:09:10.213Z,30.30
2018-02-06T00:11:37.689Z,22.80
2018-02-06T00:14:05.169Z,17.33
2018-02-06T00:16:32.631Z,33.10
2018-02-06T00:19:00.409Z,30.40
2018-02-06T00:21:28.637Z,22.97
2018-02-06T00:23:56.085Z,23.80
2018-02-06T00:26:23.569Z,25.00
2018-02-06T00:28:51.067Z,25.57
2018-02-06T00:31:18.613Z,26.30
2018-02-06T00:33:46.064Z,19.80
2018-02-06T00:36:13.552Z,28.13
2018-02-06T00:38:41.028Z,30.30
2018-02-06T00:41:08.521Z,22.92
2018-02-06T00:43:35.980Z,28.50
2018-02-06T00:46:03.456Z,25.10
2018-02-06T00:48:30.922Z,15.50
2018-02-06T00:50:59.169Z,24.20
2018-02-06T00:53:26.637Z,21.40
2018-02-06T00:55:54.123Z,28.08
2018-02-06T00:58:21.589Z,29.65
2018-02-06T01:00:49.119Z,22.40
2018-02-06T01:03:16.580Z,21.83
2018-02-06T01:05:44.086Z,23.90
2018-02-06T01:08:11.586Z,21.58
2018-02-06T01:10:39.049Z,22.83
2018-02-06T01:13:06.508Z,19.23
2018-02-06T01:15:34.018Z,19.70
2018-02-06T01:18:01.513Z,29.55
2018-02-06T01:20:28.996Z,22.47
2018-02-06T01:22:57.245Z,19.73
2018-02-06T01:25:24.737Z,22.20
2018-02-06T01:27:52.209Z,20.25
2018-02-06T01:30:19.702Z,24.90
2018-02-06T01:32:47.217Z,27.93
2018-02-06T01:35:15.458Z,29.60
2018-02-06T01:37:42.921Z,29.67
2018-02-06T01:40:10.419Z,26.65
2018-02-06T01:42:38.693Z,31.13
2018-02-06T01:45:06.152Z,23.52
2018-02-06T01:47:33.651Z,31.45
2018-02-06T01:50:04.921Z,23.10
2018-02-06T01:52:32.851Z,28.20
2018-02-06T01:55:00.337Z,21.05
2018-02-06T01:57:27.801Z,26.00
2018-02-06T01:59:55.293Z,28.98
2018-02-06T02:02:23.538Z,28.45
2018-02-06T02:04:51.009Z,31.43
2018-02-06T02:07:18.497Z,28.95
2018-02-06T02:09:46.042Z,36.53
2018-02-06T02:12:14.305Z,24.67
2018-02-06T02:14:41.777Z,26.10
2018-02-06T02:17:10.034Z,32.53
2018-02-06T02:19:37.530Z,31.98
2018-02-06T02:22:05.068Z,29.12
2018-02-06T02:24:32.549Z,28.17
2018-02-06T02:27:00.011Z,18.00
2018-02-06T02:29:27.505Z,29.95
2018-02-06T02:31:54.971Z,26.23
2018-02-06T02:34:22.456Z,16.33
2018-02-06T02:36:50.718Z,29.98
2018-02-06T02:39:18.201Z,21.87
2018-02-06T04:39:48.310Z,22.10
2018-02-06T04:42:15.760Z,22.50
2018-02-06T04:44:43.245Z,25.10
2018-02-06T04:47:10.702Z,20.12
2018-02-06T04:49:38.197Z,21.37
2018-02-06T04:52:05.689Z,33.70
2018-02-06T04:54:33.185Z,25.62
2018-02-06T04:57:00.668Z,29.77
2018-02-06T04:59:28.245Z,24.37
2018-02-06T05:01:55.706Z,11.85
2018-02-06T05:04:23.200Z,17.00
2018-02-06T05:06:50.661Z,19.75
2018-02-06T05:09:18.174Z,28.33
2018-02-06T05:11:45.641Z,25.30
2018-02-06T05:14:13.105Z,26.17
2018-02-06T05:16:40.673Z,21.50
2018-02-06T05:19:08.149Z,8.60
2018-02-06T05:21:35.618Z,24.25
2018-02-06T05:24:03.108Z,16.42
2018-02-06T05:26:31.341Z,25.75
2018-02-06T05:28:58.828Z,25.55
2018-02-06T05:31:27.082Z,22.67
2018-02-06T05:33:54.549Z,18.98
2018-02-06T05:36:22.022Z,18.33
2018-02-06T05:38:50.285Z,15.90
2018-02-06T05:41:17.744Z,24.10
2018-02-06T05:43:45.234Z,20.20
2018-02-06T05:46:12.700Z,20.73
2018-02-06T05:48:40.193Z,19.65
2018-02-06T05:51:07.656Z,16.85
2018-02-06T05:53:35.136Z,8.50
2018-02-06T05:56:02.637Z,20.85
2018-02-06T05:58:30.197Z,13.13
2018-02-06T06:00:57.652Z,20.35
2018-02-06T06:03:25.153Z,15.00
2018-02-06T06:05:52.626Z,22.27
2018-02-06T06:08:20.086Z,16.45
2018-02-06T06:10:47.582Z,14.13
2018-02-06T06:13:15.032Z,17.47
2018-02-06T06:15:42.504Z,13.55
2018-02-06T06:18:10.001Z,21.08
2018-02-06T06:20:37.481Z,27.48
2018-02-06T06:23:04.944Z,15.95
2018-02-06T06:25:33.211Z,14.02
2018-02-06T06:28:00.686Z,26.80
2018-02-06T06:30:28.958Z,18.02
2018-02-06T06:32:56.414Z,10.98
2018-02-06T06:35:23.909Z,19.45
2018-02-06T06:37:51.370Z,20.98
2018-02-06T06:40:19.857Z,22.37
2018-02-06T06:42:47.472Z,25.60
2018-02-06T06:45:14.959Z,16.05
2018-02-06T06:47:43.293Z,23.30
2018-02-06T06:50:10.785Z,31.65
2018-02-06T06:52:38.278Z,18.77
2018-02-06T06:55:05.778Z,14.00
2018-02-06T06:57:33.257Z,19.85
2018-02-06T07:00:01.485Z,19.45
2018-02-06T07:02:28.990Z,30.58
2018-02-06T07:04:56.457Z,23.27
2018-02-06T07:07:23.928Z,23.70
2018-02-06T07:09:51.384Z,24.40
2018-02-06T07:12:18.880Z,33.90
2018-02-06T07:14:46.345Z,25.65
2018-02-06T07:17:13.838Z,24.63
2018-02-06T07:19:41.397Z,23.20
2018-02-06T07:22:09.626Z,29.98
2018-02-06T07:24:37.118Z,14.35
2018-02-06T07:27:04.636Z,16.08
2018-02-06T07:29:32.142Z,24.75
2018-02-06T07:31:59.610Z,21.65
2018-02-06T07:34:27.120Z,21.55
2018-02-06T07:36:54.684Z,26.87
2018-02-06T07:39:22.157Z,28.48
2018-02-06T07:41:49.663Z,27.37
2018-02-06T07:44:17.146Z,19.73
2018-02-06T07:46:44.617Z,16.42
2018-02-06T07:49:12.144Z,7.80
2018-02-06T07:51:39.623Z,30.27
2018-02-06T07:54:07.134Z,11.35
2018-02-06T07:56:34.601Z,17.30
2018-02-06T07:59:02.626Z,30.27
2018-02-06T08:01:30.092Z,21.17
2018-02-06T08:03:57.589Z,20.62
2018-02-06T08:06:25.054Z,25.88
2018-02-06T08:08:52.522Z,23.90
2018-02-06T08:11:20.117Z,27.85
2018-02-06T08:13:47.867Z,26.33
2018-02-06T08:16:15.338Z,22.37
2018-02-06T08:18:42.882Z,28.12
2018-02-06T08:21:10.370Z,13.35
2018-02-06T08:23:37.834Z,24.52
2018-02-06T08:26:05.371Z,13.98
2018-02-06T08:28:33.794Z,33.10
2018-02-06T08:31:01.245Z,31.92
2018-02-06T08:33:28.713Z,13.98
2018-02-06T08:35:57.000Z,21.37
2018-02-06T08:38:24.763Z,27.13
2018-02-06T08:40:52.233Z,29.48
2018-02-06T08:43:19.710Z,20.90
2018-02-06T08:45:47.174Z,19.10
2018-02-06T08:48:14.733Z,25.70
2018-02-06T08:50:42.195Z,26.67
2018-02-06T08:53:09.695Z,26.70
2018-02-06T08:55:37.190Z,25.20
2018-02-06T08:58:04.786Z,30.80
2018-02-06T09:00:32.246Z,14.23
2018-02-06T09:02:59.738Z,24.02
2018-02-06T09:05:27.337Z,9.43
2018-02-06T09:07:54.831Z,17.12
2018-02-06T09:10:22.300Z,12.25
2018-02-06T09:12:49.782Z,21.10
2018-02-06T09:15:18.018Z,24.95
2018-02-06T09:17:45.510Z,26.15
2018-02-06T09:20:12.977Z,21.23
2018-02-06T09:22:40.484Z,30.05
2018-02-06T09:25:07.964Z,27.60
2018-02-06T09:27:35.488Z,18.70
2018-02-06T09:30:02.969Z,20.02
2018-02-06T09:32:30.447Z,24.43
2018-02-06T09:34:57.929Z,24.00
2018-02-06T09:37:25.433Z,18.63
2018-02-06T09:39:52.958Z,18.35
2018-02-06T09:42:21.221Z,21.97
2018-02-06T09:44:49.479Z,23.77
2018-02-06T09:47:16.968Z,29.77
2018-02-06T09:49:45.196Z,26.77
2018-02-06T09:52:12.864Z,23.40
2018-02-06T09:54:40.318Z,24.70
2018-02-06T09:57:07.833Z,17.37
2018-02-06T09:59:35.277Z,18.43
2018-02-06T10:02:03.504Z,29.63
2018-02-06T10:04:31.047Z,24.63
2018-02-06T10:06:58.511Z,27.67
2018-02-06T10:09:25.986Z,22.83
2018-02-06T10:11:53.476Z,31.50
2018-02-06T10:14:20.946Z,27.03
2018-02-06T10:16:48.428Z,13.43
2018-02-06T10:19:15.949Z,31.65
2018-02-06T10:21:44.184Z,21.37
2018-02-06T10:24:11.668Z,21.50
2018-02-06T10:26:39.133Z,20.92
2018-02-06T10:29:06.616Z,26.13
2018-02-06T10:31:34.832Z,23.47
2018-02-06T10:34:02.309Z,21.83
2018-02-06T10:36:29.793Z,20.43
2018-02-06T10:38:57.281Z,27.93
2018-02-06T10:41:24.749Z,22.57
2018-02-06T10:43:52.220Z,31.07
2018-02-06T10:46:19.726Z,24.83
2018-02-06T10:48:47.239Z,21.83
2018-02-06T10:51:14.737Z,20.80
2018-02-06T10:53:42.195Z,14.43
2018-02-06T10:56:09.667Z,26.73
2018-02-06T10:58:37.195Z,26.50
2018-02-06T11:01:04.642Z,25.73
2018-02-06T11:03:32.095Z,22.63
2018-02-06T11:05:59.588Z,22.67
2018-02-06T11:08:27.048Z,24.53
2018-02-06T11:10:54.560Z,23.47
2018-02-06T11:13:22.028Z,18.57
2018-02-06T11:15:49.481Z,12.60
2018-02-06T11:18:16.968Z,26.80
2018-02-06T11:20:44.440Z,24.93
2018-02-06T11:23:11.936Z,22.50
2018-02-06T11:25:39.401Z,24.47
2018-02-06T11:28:06.877Z,18.43
2018-02-06T11:30:34.359Z,33.53
2018-02-06T11:33:01.829Z,27.30
2018-02-06T11:35:29.310Z,20.20
2018-02-06T11:37:56.769Z,19.63
2018-02-06T11:40:24.238Z,19.93
2018-02-06T11:42:51.726Z,24.53
2018-02-06T11:45:19.185Z,25.57
2018-02-06T11:47:46.678Z,23.23
2018-02-06T11:50:14.191Z,22.80
2018-02-06T11:52:41.681Z,23.23
2018-02-06T11:55:09.211Z,27.87
2018-02-06T11:57:36.677Z,22.20
2018-02-06T12:00:04.197Z,18.23
2018-02-06T12:02:32.969Z,20.60
2018-02-06T12:05:00.421Z,20.77
2018-02-06T12:07:27.889Z,17.43
2018-02-06T12:09:55.357Z,16.80
2018-02-06T12:12:22.857Z,19.57
2018-02-06T12:14:50.344Z,39.87
2018-02-06T12:17:17.822Z,27.07
2018-02-06T12:19:45.305Z,19.50
2018-02-06T12:22:13.533Z,21.97
2018-02-06T12:24:41.033Z,24.00
2018-02-06T12:27:09.248Z,16.03
2018-02-06T12:29:36.752Z,19.90
2018-02-06T12:32:04.228Z,25.83
2018-02-06T12:34:32.473Z,14.57
2018-02-06T12:36:59.976Z,21.57
2018-02-06T12:39:27.736Z,20.30
2018-02-06T12:41:55.192Z,17.23
2018-02-06T12:44:22.644Z,21.67
2018-02-06T12:46:50.122Z,22.50
2018-02-06T12:49:17.592Z,22.13
2018-02-06T12:51:45.049Z,20.40
2018-02-06T12:54:12.555Z,20.40
2018-02-06T12:56:40.830Z,17.33
2018-02-06T12:59:09.157Z,20.40
2018-02-06T13:01:36.657Z,16.93
2018-02-06T13:04:05.035Z,27.37
2018-02-06T13:06:32.511Z,21.13
2018-02-06T13:09:00.777Z,23.60
2018-02-06T13:11:28.245Z,18.90
2018-02-06T13:13:55.737Z,19.87
2018-02-06T13:16:23.192Z,25.83
2018-02-06T13:18:50.642Z,18.80
2018-02-06T13:21:18.881Z,20.47
2018-02-06T13:23:46.324Z,17.43
2018-02-06T13:26:13.804Z,25.00
2018-02-06T13:28:41.273Z,22.20
2018-02-06T13:31:09.512Z,13.90
2018-02-06T13:33:36.992Z,23.00
2018-02-06T13:36:04.436Z,20.47
2018-02-06T13:38:31.912Z,24.53
2018-02-06T13:40:59.360Z,21.33
2018-02-06T13:43:26.924Z,19.47
2018-02-06T13:45:54.429Z,21.83
2018-02-06T13:48:21.888Z,16.67
2018-02-06T13:50:49.384Z,20.20
2018-02-06T13:53:16.971Z,17.57
2018-02-06T13:55:44.565Z,26.77
2018-02-06T13:58:12.054Z,18.43
2018-02-06T14:00:39.540Z,17.70
2018-02-06T14:03:07.021Z,20.77
2018-02-06T14:05:34.500Z,13.67
2018-02-06T14:08:01.972Z,19.23
2018-02-06T14:10:29.438Z,19.23
2018-02-06T14:12:56.918Z,20.13
2018-02-06T14:15:24.399Z,21.37
2018-02-06T14:17:51.871Z,21.53
2018-02-06T14:20:20.214Z,22.47
2018-02-06T14:22:47.706Z,19.47
2018-02-06T14:25:15.971Z,18.90
2018-02-06T14:27:43.416Z,20.87
2018-02-06T14:30:10.902Z,21.93
2018-02-06T14:32:38.393Z,16.77
2018-02-06T14:35:05.896Z,26.73
2018-02-06T14:37:33.428Z,16.53
2018-02-06T14:40:00.922Z,19.07
2018-02-06T14:42:28.377Z,19.80
2018-02-06T14:44:55.864Z,17.43
2018-02-06T14:47:23.326Z,19.10
2018-02-06T14:49:50.905Z,17.03
2018-02-06T14:52:18.372Z,21.27
2018-02-06T14:54:45.845Z,17.30
2018-02-06T14:57:13.323Z,20.30
2018-02-06T14:59:40.773Z,18.97
2018-02-06T15:02:08.245Z,21.30
2018-02-06T15:04:35.735Z,20.23
2018-02-06T15:07:03.232Z,22.67
2018-02-06T15:09:30.700Z,24.60
2018-02-06T15:11:58.315Z,18.80
2018-02-06T15:14:25.806Z,19.20
2018-02-06T15:16:53.278Z,25.27
2018-02-06T15:19:20.789Z,20.30
2018-02-06T15:21:48.241Z,19.50
2018-02-06T15:24:16.763Z,39.13
2018-02-06T15:26:44.213Z,21.77
2018-02-06T15:29:12.831Z,20.83
2018-02-06T15:31:40.316Z,13.87
2018-02-06T15:34:09.389Z,13.83
2018-02-06T15:36:37.826Z,18.83
2018-02-06T15:39:05.328Z,17.83
2018-02-06T15:41:32.989Z,19.20
2018-02-06T15:44:00.611Z,21.93
2018-02-06T15:46:28.074Z,16.10
2018-02-06T15:48:55.647Z,16.20
2018-02-06T15:51:23.240Z,22.23
2018-02-06T15:53:50.789Z,18.20
2018-02-06T15:56:18.332Z,19.00
2018-02-06T15:58:45.907Z,22.57
2018-02-06T16:01:16.349Z,19.23
2018-02-06T16:03:43.807Z,14.60
2018-02-06T16:06:11.360Z,17.47
2018-02-06T16:08:38.835Z,18.50
2018-02-06T16:11:06.432Z,16.17
2018-02-06T16:13:34.051Z,19.00
2018-02-06T16:16:01.586Z,21.77
2018-02-06T16:18:29.116Z,16.17
2018-02-06T16:20:56.602Z,15.90
2018-02-06T16:23:24.096Z,13.77
2018-02-06T16:25:52.329Z,17.90
2018-02-06T16:28:19.834Z,17.27
2018-02-06T16:30:47.324Z,16.37
2018-02-06T16:33:14.821Z,24.23
2018-02-06T16:35:43.220Z,18.87
2018-02-06T16:38:10.733Z,17.40
2018-02-06T16:40:38.426Z,16.47
2018-02-06T16:43:06.144Z,24.40
2018-02-06T16:45:33.673Z,12.23
2018-02-06T16:48:01.142Z,14.13
2018-02-06T16:50:28.644Z,15.87
2018-02-06T16:52:56.105Z,16.00
2018-02-06T16:55:23.670Z,95.77
2018-02-06T16:57:51.208Z,27.23
2018-02-06T17:00:18.985Z,21.60
2018-02-06T17:02:46.602Z,19.10
2018-02-06T17:05:14.878Z,35.30
2018-02-06T17:07:42.519Z,15.93
2018-02-06T17:10:10.257Z,41.83
2018-02-06T17:12:38.752Z,56.40
2018-02-06T17:15:07.114Z,38.87
2018-02-06T17:17:34.770Z,49.90
2018-02-06T17:20:02.294Z,118.40
2018-02-06T17:22:30.402Z,214.20
2018-02-06T17:24:57.929Z,192.83
2018-02-06T17:27:26.322Z,363.00
2018-02-06T17:29:53.821Z,96.03
2018-02-06T17:32:21.308Z,40.00
2018-02-06T17:34:48.893Z,52.63
2018-02-06T17:37:16.509Z,58.67
2018-02-06T17:39:44.000Z,23.73
2018-02-06T17:42:11.481Z,33.23
2018-02-06T17:44:38.937Z,20.50
2018-02-06T17:47:06.424Z,21.07
2018-02-06T17:49:33.892Z,18.07
2018-02-06T17:52:01.376Z,17.87
2018-02-06T17:54:28.880Z,21.37
2018-02-06T17:56:56.427Z,23.00
2018-02-06T17:59:23.845Z,23.60
2018-02-06T18:01:51.334Z,21.30
2018-02-06T18:04:19.020Z,24.17
2018-02-06T18:06:46.502Z,23.53
2018-02-06T18:09:14.039Z,15.40
2018-02-06T18:11:42.340Z,16.50
2018-02-06T18:14:09.800Z,19.67
2018-02-06T18:16:37.283Z,14.73
2018-02-06T18:19:04.761Z,18.83
2018-02-06T18:21:32.304Z,22.53
2018-02-06T18:23:59.783Z,20.33
2018-02-06T18:26:28.030Z,19.33
2018-02-06T18:28:55.496Z,17.20
2018-02-06T18:31:23.236Z,16.20
2018-02-06T18:33:50.756Z,20.53
2018-02-06T18:36:18.312Z,20.33
2018-02-06T18:38:45.895Z,23.57
2018-02-06T18:41:13.413Z,25.43
2018-02-06T18:43:41.669Z,15.53
2018-02-06T18:46:09.126Z,16.87
2018-02-06T18:48:36.610Z,20.53
2018-02-06T18:51:04.833Z,19.27
2018-02-06T18:53:32.438Z,14.90
2018-02-06T18:56:00.666Z,17.70
2018-02-06T18:58:28.176Z,20.00
2018-02-06T19:00:55.720Z,19.23
2018-02-06T19:03:23.236Z,16.57
2018-02-06T19:05:50.731Z,17.73
2018-02-06T19:08:18.200Z,16.43
2018-02-06T19:10:45.677Z,18.27
2018-02-06T19:13:13.359Z,26.47
2018-02-06T19:15:41.172Z,15.43
2018-02-06T19:18:08.674Z,15.07
2018-02-06T19:20:36.263Z,18.27
2018-02-06T19:23:03.741Z,22.87
2018-02-06T19:25:31.232Z,10.87
2018-02-06T19:27:58.756Z,16.40
2018-02-06T19:30:26.258Z,13.50
2018-02-06T19:32:54.690Z,17.93
2018-02-06T19:35:22.393Z,19.37
2018-02-06T19:37:50.659Z,17.47
2018-02-06T19:40:18.155Z,12.87
2018-02-06T19:42:46.397Z,24.53
2018-02-06T19:45:14.038Z,16.20
2018-02-06T19:47:41.542Z,14.07
2018-02-06T19:50:09.805Z,16.50
2018-02-06T19:52:37.312Z,13.40
2018-02-06T19:55:04.966Z,17.27
2018-02-06T19:57:32.465Z,20.13
2018-02-06T20:00:00.056Z,16.23
2018-02-06T20:02:28.340Z,18.57
2018-02-06T20:04:56.810Z,13.63
2018-02-06T20:07:24.436Z,17.07
2018-02-06T20:09:52.724Z,15.17
2018-02-06T20:12:20.475Z,15.47
2018-02-06T20:14:48.749Z,20.43
2018-02-06T20:17:16.230Z,13.67
2018-02-06T20:19:43.748Z,16.30
2018-02-06T20:22:11.979Z,14.60
2018-02-06T20:24:39.655Z,14.70
2018-02-06T20:27:08.127Z,14.77
2018-02-06T20:29:36.444Z,15.10
2018-02-06T20:32:04.055Z,13.60
2018-02-06T20:34:32.328Z,13.67
2018-02-06T20:36:59.900Z,14.83
2018-02-06T20:39:27.354Z,9.70
2018-02-06T20:41:54.909Z,16.60
2018-02-06T20:44:22.361Z,17.70
2018-02-06T20:46:50.080Z,17.43
2018-02-06T20:49:17.581Z,14.30
2018-02-06T20:51:45.177Z,16.60
2018-02-06T20:54:12.853Z,18.13
2018-02-06T20:56:40.355Z,17.03
2018-02-06T20:59:07.829Z,13.67
2018-02-06T21:01:35.436Z,13.27
2018-02-06T21:04:02.929Z,16.20
2018-02-06T21:06:30.433Z,15.20
2018-02-06T21:08:58.008Z,15.07
2018-02-06T21:11:25.769Z,17.80
2018-02-06T21:13:53.302Z,10.13
2018-02-06T21:16:20.945Z,15.13
2018-02-06T21:18:48.487Z,13.20
2018-02-06T21:21:16.033Z,17.03
2018-02-06T21:23:43.678Z,14.80
2018-02-06T21:26:11.327Z,10.60
2018-02-06T21:28:38.882Z,18.83
2018-02-06T21:31:07.142Z,14.03
2018-02-06T21:33:34.606Z,13.67
2018-02-06T21:36:02.089Z,16.70
2018-02-06T21:38:29.568Z,12.87
2018-02-06T21:40:57.025Z,14.67
2018-02-06T21:43:24.501Z,13.80
2018-02-06T21:45:51.991Z,13.07
2018-02-06T21:48:19.484Z,15.43
2018-02-06T21:50:46.950Z,15.18
2018-02-06T21:53:14.434Z,9.33
2018-02-06T21:55:42.662Z,12.90
2018-02-06T21:58:10.141Z,14.73
2018-02-06T22:00:37.597Z,10.87
2018-02-06T22:03:05.109Z,14.30
2018-02-06T22:05:32.598Z,10.97
2018-02-06T22:08:00.854Z,21.90
2018-02-06T22:10:28.346Z,12.47
2018-02-06T22:12:56.629Z,12.33
2018-02-06T22:15:24.119Z,12.43
2018-02-06T22:17:51.586Z,18.10
2018-02-06T22:20:19.079Z,13.43
2018-02-06T22:22:46.567Z,16.23
2018-02-06T22:25:14.070Z,15.20
2018-02-06T22:27:41.577Z,12.48
2018-02-06T22:30:09.038Z,10.90
2018-02-06T22:32:36.501Z,9.90
2018-02-06T22:35:04.006Z,16.40
2018-02-06T22:37:31.476Z,14.67
2018-02-06T22:39:58.930Z,21.87
2018-02-06T22:42:26.419Z,14.73
2018-02-06T22:44:53.879Z,13.40
2018-02-06T22:47:21.370Z,16.98
2018-02-06T22:49:48.907Z,12.80
2018-02-06T22:52:16.379Z,20.10
2018-02-06T22:54:43.853Z,14.63
2018-02-06T22:57:11.321Z,12.73
2018-02-06T22:59:38.809Z,13.53
2018-02-06T23:02:06.273Z,11.40
2018-02-06T23:04:33.977Z,19.17
2018-02-06T23:07:01.472Z,14.97
2018-02-06T23:09:28.955Z,12.25
2018-02-06T23:11:57.212Z,17.93
2018-02-06T23:14:24.700Z,20.83
2018-02-06T23:16:52.950Z,14.30
2018-02-06T23:19:20.429Z,18.40
2018-02-06T23:21:48.659Z,13.05
2018-02-06T23:24:16.177Z,15.50
2018-02-06T23:26:44.394Z,16.00
2018-02-06T23:29:11.894Z,12.35
2018-02-06T23:31:40.133Z,17.33
2018-02-06T23:34:07.618Z,13.37
2018-02-06T23:36:35.885Z,15.85
2018-02-06T23:39:03.369Z,16.30
2018-02-06T23:41:31.605Z,16.20
2018-02-06T23:43:59.068Z,15.07
2018-02-06T23:46:26.565Z,15.40
2018-02-06T23:48:55.894Z,16.65
2018-02-06T23:51:23.370Z,15.50
2018-02-06T23:53:50.865Z,19.92
2018-02-06T23:56:18.356Z,19.13
2018-02-06T23:58:45.828Z,15.50
